sensor_id;sensor_type;location;lat;lon;timestamp;pressure;altitude;pressure_sealevel;temperature;humidity
72612;BME280;60655;52.182;4.474;2023-08-20T00:01:26;101998.38;;;18.64;83.52
72612;BME280;60655;52.182;4.474;2023-08-20T00:03:28;102000.44;;;18.73;83.41
72612;BME280;60655;52.182;4.474;2023-08-20T00:05:32;102000.25;;;18.63;83.86
72612;BME280;60655;52.182;4.474;2023-08-20T00:07:33;102000.34;;;18.68;84.14
72612;BME280;60655;52.182;4.474;2023-08-20T00:09:34;101990.97;;;18.59;84.36
72612;BME280;60655;52.182;4.474;2023-08-20T00:11:36;101994.28;;;18.61;84.46
72612;BME280;60655;52.182;4.474;2023-08-20T00:13:37;102002.13;;;18.63;84.48
72612;BME280;60655;52.182;4.474;2023-08-20T00:15:38;101990.78;;;18.61;84.40
72612;BME280;60655;52.182;4.474;2023-08-20T00:17:40;101999.44;;;18.63;84.34
72612;BME280;60655;52.182;4.474;2023-08-20T00:19:42;102003.75;;;18.64;84.20
72612;BME280;60655;52.182;4.474;2023-08-20T00:21:43;102011.22;;;18.73;83.84
72612;BME280;60655;52.182;4.474;2023-08-20T00:23:45;102008.50;;;18.73;83.77
72612;BME280;60655;52.182;4.474;2023-08-20T00:25:46;102011.22;;;18.73;83.84
72612;BME280;60655;52.182;4.474;2023-08-20T00:27:47;102023.91;;;18.78;83.59
72612;BME280;60655;52.182;4.474;2023-08-20T00:29:48;102026.09;;;18.64;84.43
72612;BME280;60655;52.182;4.474;2023-08-20T00:31:49;102030.44;;;18.65;84.39
72612;BME280;60655;52.182;4.474;2023-08-20T00:33:50;102029.72;;;18.58;84.94
72612;BME280;60655;52.182;4.474;2023-08-20T00:35:51;102038.75;;;18.52;85.46
72612;BME280;60655;52.182;4.474;2023-08-20T00:37:52;102037.44;;;18.54;85.43
72612;BME280;60655;52.182;4.474;2023-08-20T00:39:53;102029.63;;;18.53;85.33
72612;BME280;60655;52.182;4.474;2023-08-20T00:41:54;102027.63;;;18.60;85.00
72612;BME280;60655;52.182;4.474;2023-08-20T00:43:55;102035.22;;;18.63;84.97
72612;BME280;60655;52.182;4.474;2023-08-20T00:45:58;102036.97;;;18.69;84.80
72612;BME280;60655;52.182;4.474;2023-08-20T00:47:59;102041.09;;;18.60;85.16
72612;BME280;60655;52.182;4.474;2023-08-20T00:50:01;102040.84;;;18.62;85.23
72612;BME280;60655;52.182;4.474;2023-08-20T00:52:06;102047.41;;;18.54;85.55
72612;BME280;60655;52.182;4.474;2023-08-20T00:54:09;102047.22;;;18.44;85.56
72612;BME280;60655;52.182;4.474;2023-08-20T00:56:10;102058.06;;;18.49;85.69
72612;BME280;60655;52.182;4.474;2023-08-20T00:58:12;102061.03;;;18.36;86.09
72612;BME280;60655;52.182;4.474;2023-08-20T01:00:13;102054.97;;;18.29;86.70
72612;BME280;60655;52.182;4.474;2023-08-20T01:02:15;102065.13;;;18.27;87.29
72612;BME280;60655;52.182;4.474;2023-08-20T01:04:16;102065.84;;;18.34;86.89
72612;BME280;60655;52.182;4.474;2023-08-20T01:08:47;102060.94;;;18.31;87.21
72612;BME280;60655;52.182;4.474;2023-08-20T01:13:01;102054.50;;;18.20;87.86
72612;BME280;60655;52.182;4.474;2023-08-20T01:15:02;102049.84;;;18.15;88.01
72612;BME280;60655;52.182;4.474;2023-08-20T01:17:03;102049.13;;;18.20;88.14
72612;BME280;60655;52.182;4.474;2023-08-20T01:19:05;102058.16;;;18.14;88.30
72612;BME280;60655;52.182;4.474;2023-08-20T01:21:34;102064.13;;;18.16;88.41
72612;BME280;60655;52.182;4.474;2023-08-20T01:23:53;102064.00;;;18.11;88.47
72612;BME280;60655;52.182;4.474;2023-08-20T01:28:29;102065.19;;;18.15;88.45
72612;BME280;60655;52.182;4.474;2023-08-20T01:30:31;102057.69;;;18.05;89.28
72612;BME280;60655;52.182;4.474;2023-08-20T01:32:32;102060.28;;;18.12;89.23
72612;BME280;60655;52.182;4.474;2023-08-20T01:34:34;102046.25;;;17.98;89.65
72612;BME280;60655;52.182;4.474;2023-08-20T01:36:35;102052.91;;;18.07;89.10
72612;BME280;60655;52.182;4.474;2023-08-20T01:38:36;102053.84;;;18.13;89.04
72612;BME280;60655;52.182;4.474;2023-08-20T01:40:38;102048.13;;;17.98;89.73
72612;BME280;60655;52.182;4.474;2023-08-20T01:42:39;102047.91;;;17.87;90.04
72612;BME280;60655;52.182;4.474;2023-08-20T01:44:40;102054.22;;;17.81;90.41
72612;BME280;60655;52.182;4.474;2023-08-20T01:46:41;102057.13;;;17.80;90.93
72612;BME280;60655;52.182;4.474;2023-08-20T01:48:43;102052.69;;;17.85;90.54
72612;BME280;60655;52.182;4.474;2023-08-20T01:50:43;102046.84;;;17.88;90.56
72612;BME280;60655;52.182;4.474;2023-08-20T01:52:46;102031.19;;;17.85;90.48
72612;BME280;60655;52.182;4.474;2023-08-20T01:54:48;102032.91;;;17.92;90.04
72612;BME280;60655;52.182;4.474;2023-08-20T01:56:49;102039.03;;;17.87;89.81
72612;BME280;60655;52.182;4.474;2023-08-20T01:58:50;102040.91;;;17.86;90.14
72612;BME280;60655;52.182;4.474;2023-08-20T02:00:51;102038.66;;;17.72;90.49
72612;BME280;60655;52.182;4.474;2023-08-20T02:02:52;102037.59;;;17.61;91.03
72612;BME280;60655;52.182;4.474;2023-08-20T02:04:53;102033.16;;;17.67;90.95
72612;BME280;60655;52.182;4.474;2023-08-20T02:06:54;102026.25;;;17.59;91.36
72612;BME280;60655;52.182;4.474;2023-08-20T02:08:55;102042.16;;;17.61;91.36
72612;BME280;60655;52.182;4.474;2023-08-20T02:11:01;102036.28;;;17.64;91.54
72612;BME280;60655;52.182;4.474;2023-08-20T02:13:02;102035.41;;;17.70;91.68
72612;BME280;60655;52.182;4.474;2023-08-20T02:15:05;102050.47;;;17.82;91.35
72612;BME280;60655;52.182;4.474;2023-08-20T02:17:06;102050.81;;;17.86;90.84
72612;BME280;60655;52.182;4.474;2023-08-20T02:19:08;102048.00;;;17.69;91.12
72612;BME280;60655;52.182;4.474;2023-08-20T02:21:09;102055.59;;;17.72;91.06
72612;BME280;60655;52.182;4.474;2023-08-20T02:23:10;102045.09;;;17.71;91.05
72612;BME280;60655;52.182;4.474;2023-08-20T02:25:11;102032.34;;;17.54;90.94
72612;BME280;60655;52.182;4.474;2023-08-20T02:27:12;102050.22;;;17.61;90.51
72612;BME280;60655;52.182;4.474;2023-08-20T02:29:13;102035.13;;;17.48;90.44
72612;BME280;60655;52.182;4.474;2023-08-20T02:31:14;102037.81;;;17.48;90.72
72612;BME280;60655;52.182;4.474;2023-08-20T02:33:14;102054.53;;;17.50;91.01
72612;BME280;60655;52.182;4.474;2023-08-20T02:35:15;102037.47;;;17.44;90.38
72612;BME280;60655;52.182;4.474;2023-08-20T02:37:17;102051.69;;;17.33;91.39
72612;BME280;60655;52.182;4.474;2023-08-20T02:39:19;102055.78;;;17.36;91.64
72612;BME280;60655;52.182;4.474;2023-08-20T02:41:20;102061.63;;;17.44;91.57
72612;BME280;60655;52.182;4.474;2023-08-20T02:43:21;102063.13;;;17.29;91.65
72612;BME280;60655;52.182;4.474;2023-08-20T02:45:22;102076.13;;;17.32;91.82
72612;BME280;60655;52.182;4.474;2023-08-20T02:47:23;102073.06;;;17.28;92.28
72612;BME280;60655;52.182;4.474;2023-08-20T02:49:24;102078.22;;;17.30;93.02
72612;BME280;60655;52.182;4.474;2023-08-20T02:51:25;102081.13;;;17.28;92.96
72612;BME280;60655;52.182;4.474;2023-08-20T02:53:26;102083.91;;;17.33;92.50
72612;BME280;60655;52.182;4.474;2023-08-20T02:55:27;102087.63;;;17.20;93.08
72612;BME280;60655;52.182;4.474;2023-08-20T02:57:29;102092.13;;;17.08;93.64
72612;BME280;60655;52.182;4.474;2023-08-20T02:59:30;102090.19;;;17.15;93.96
72612;BME280;60655;52.182;4.474;2023-08-20T03:01:31;102101.38;;;17.12;93.84
72612;BME280;60655;52.182;4.474;2023-08-20T03:03:32;102098.47;;;17.14;93.93
72612;BME280;60655;52.182;4.474;2023-08-20T03:05:33;102102.09;;;17.19;93.47
72612;BME280;60655;52.182;4.474;2023-08-20T03:07:34;102093.47;;;17.17;93.38
72612;BME280;60655;52.182;4.474;2023-08-20T03:09:35;102091.22;;;17.14;93.26
72612;BME280;60655;52.182;4.474;2023-08-20T03:11:36;102090.63;;;17.12;93.51
72612;BME280;60655;52.182;4.474;2023-08-20T03:13:37;102098.25;;;17.15;92.73
72612;BME280;60655;52.182;4.474;2023-08-20T03:15:38;102098.44;;;17.02;93.63
72612;BME280;60655;52.182;4.474;2023-08-20T03:17:39;102096.59;;;17.14;93.95
72612;BME280;60655;52.182;4.474;2023-08-20T03:19:54;102087.34;;;16.99;94.20
72612;BME280;60655;52.182;4.474;2023-08-20T03:21:55;102089.38;;;17.15;93.69
72612;BME280;60655;52.182;4.474;2023-08-20T03:23:56;102065.19;;;17.03;94.06
72612;BME280;60655;52.182;4.474;2023-08-20T03:25:58;102077.41;;;16.99;94.50
72612;BME280;60655;52.182;4.474;2023-08-20T03:27:59;102076.59;;;16.99;94.48
72612;BME280;60655;52.182;4.474;2023-08-20T03:30:01;102067.59;;;17.05;93.45
72612;BME280;60655;52.182;4.474;2023-08-20T03:32:02;102074.03;;;17.04;93.58
72612;BME280;60655;52.182;4.474;2023-08-20T03:34:03;102081.38;;;16.97;93.31
72612;BME280;60655;52.182;4.474;2023-08-20T03:36:04;102085.25;;;17.01;92.91
72612;BME280;60655;52.182;4.474;2023-08-20T03:38:05;102090.34;;;16.91;93.17
72612;BME280;60655;52.182;4.474;2023-08-20T03:40:07;102088.78;;;16.83;93.07
72612;BME280;60655;52.182;4.474;2023-08-20T03:42:08;102084.38;;;16.88;93.36
72612;BME280;60655;52.182;4.474;2023-08-20T03:44:09;102091.00;;;16.86;93.45
72612;BME280;60655;52.182;4.474;2023-08-20T03:46:10;102087.22;;;16.75;94.10
72612;BME280;60655;52.182;4.474;2023-08-20T03:48:11;102096.69;;;16.78;94.77
72612;BME280;60655;52.182;4.474;2023-08-20T03:50:12;102101.16;;;16.84;94.68
72612;BME280;60655;52.182;4.474;2023-08-20T03:52:12;102086.75;;;16.78;95.37
72612;BME280;60655;52.182;4.474;2023-08-20T03:54:14;102094.22;;;16.76;95.59
72612;BME280;60655;52.182;4.474;2023-08-20T03:56:15;102100.75;;;16.69;95.57
72612;BME280;60655;52.182;4.474;2023-08-20T03:58:16;102102.19;;;16.83;95.71
72612;BME280;60655;52.182;4.474;2023-08-20T04:00:17;102079.66;;;16.72;95.79
72612;BME280;60655;52.182;4.474;2023-08-20T04:02:18;102096.81;;;16.83;95.72
72612;BME280;60655;52.182;4.474;2023-08-20T04:04:19;102115.38;;;16.84;95.86
72612;BME280;60655;52.182;4.474;2023-08-20T04:06:21;102109.13;;;16.91;95.85
72612;BME280;60655;52.182;4.474;2023-08-20T04:08:22;102113.31;;;16.86;95.59
72612;BME280;60655;52.182;4.474;2023-08-20T04:10:23;102110.25;;;16.83;95.67
72612;BME280;60655;52.182;4.474;2023-08-20T04:12:24;102112.72;;;16.84;95.20
72612;BME280;60655;52.182;4.474;2023-08-20T04:14:25;102112.13;;;16.82;94.48
72612;BME280;60655;52.182;4.474;2023-08-20T04:16:27;102116.16;;;16.73;95.11
72612;BME280;60655;52.182;4.474;2023-08-20T04:18:28;102108.63;;;16.64;95.15
72612;BME280;60655;52.182;4.474;2023-08-20T04:20:30;102112.34;;;16.63;95.32
72612;BME280;60655;52.182;4.474;2023-08-20T04:22:31;102107.50;;;16.53;95.50
72612;BME280;60655;52.182;4.474;2023-08-20T04:24:32;102116.81;;;16.50;95.53
72612;BME280;60655;52.182;4.474;2023-08-20T04:26:34;102121.28;;;16.57;95.04
72612;BME280;60655;52.182;4.474;2023-08-20T04:28:35;102116.34;;;16.53;95.04
72612;BME280;60655;52.182;4.474;2023-08-20T04:30:36;102125.34;;;16.66;94.34
72612;BME280;60655;52.182;4.474;2023-08-20T04:32:37;102128.34;;;16.51;94.74
72612;BME280;60655;52.182;4.474;2023-08-20T04:34:38;102130.00;;;16.52;94.42
72612;BME280;60655;52.182;4.474;2023-08-20T04:36:39;102121.06;;;16.40;94.78
72612;BME280;60655;52.182;4.474;2023-08-20T04:38:40;102121.06;;;16.40;94.80
72612;BME280;60655;52.182;4.474;2023-08-20T04:40:41;102126.94;;;16.48;94.71
72612;BME280;60655;52.182;4.474;2023-08-20T04:42:42;102129.19;;;16.33;94.96
72612;BME280;60655;52.182;4.474;2023-08-20T04:44:43;102120.75;;;16.30;95.15
72612;BME280;60655;52.182;4.474;2023-08-20T04:46:44;102130.22;;;16.50;95.19
72612;BME280;60655;52.182;4.474;2023-08-20T04:48:45;102129.63;;;16.48;95.60
72612;BME280;60655;52.182;4.474;2023-08-20T04:50:46;102120.53;;;16.49;95.39
72612;BME280;60655;52.182;4.474;2023-08-20T04:52:47;102122.78;;;16.34;95.45
72612;BME280;60655;52.182;4.474;2023-08-20T04:54:49;102134.00;;;16.25;95.86
72612;BME280;60655;52.182;4.474;2023-08-20T04:56:49;102132.81;;;16.20;96.13
72612;BME280;60655;52.182;4.474;2023-08-20T04:58:50;102131.97;;;16.20;96.22
72612;BME280;60655;52.182;4.474;2023-08-20T05:00:51;102132.91;;;16.32;96.26
72612;BME280;60655;52.182;4.474;2023-08-20T05:02:52;102135.75;;;16.37;95.79
72612;BME280;60655;52.182;4.474;2023-08-20T05:04:53;102132.25;;;16.37;95.45
72612;BME280;60655;52.182;4.474;2023-08-20T05:06:54;102130.53;;;16.42;95.12
72612;BME280;60655;52.182;4.474;2023-08-20T05:08:56;102137.53;;;16.43;95.68
72612;BME280;60655;52.182;4.474;2023-08-20T05:10:56;102132.41;;;16.42;95.64
72612;BME280;60655;52.182;4.474;2023-08-20T05:12:57;102127.16;;;16.47;95.48
72612;BME280;60655;52.182;4.474;2023-08-20T05:14:58;102117.34;;;16.41;95.09
72612;BME280;60655;52.182;4.474;2023-08-20T05:16:59;102132.28;;;16.48;95.41
72612;BME280;60655;52.182;4.474;2023-08-20T05:19:00;102133.34;;;16.47;96.42
72612;BME280;60655;52.182;4.474;2023-08-20T05:21:01;102134.09;;;16.54;97.00
72612;BME280;60655;52.182;4.474;2023-08-20T05:23:02;102136.84;;;16.48;97.45
72612;BME280;60655;52.182;4.474;2023-08-20T05:25:05;102135.81;;;16.49;97.88
72612;BME280;60655;52.182;4.474;2023-08-20T05:27:12;102139.91;;;16.51;98.14
72612;BME280;60655;52.182;4.474;2023-08-20T05:29:15;102129.41;;;16.50;98.44
72612;BME280;60655;52.182;4.474;2023-08-20T05:31:16;102134.44;;;16.65;98.46
72612;BME280;60655;52.182;4.474;2023-08-20T05:33:17;102134.03;;;16.79;98.34
72612;BME280;60655;52.182;4.474;2023-08-20T05:35:18;102141.03;;;16.80;98.79
72612;BME280;60655;52.182;4.474;2023-08-20T05:37:18;102142.00;;;16.86;98.68
72612;BME280;60655;52.182;4.474;2023-08-20T05:39:19;102142.97;;;16.92;98.74
72612;BME280;60655;52.182;4.474;2023-08-20T05:41:20;102145.22;;;16.95;99.12
72612;BME280;60655;52.182;4.474;2023-08-20T05:43:21;102147.94;;;17.06;98.66
72612;BME280;60655;52.182;4.474;2023-08-20T05:45:22;102137.47;;;17.16;98.47
72612;BME280;60655;52.182;4.474;2023-08-20T05:47:23;102144.88;;;17.33;98.26
72612;BME280;60655;52.182;4.474;2023-08-20T05:49:24;102136.03;;;17.44;97.56
72612;BME280;60655;52.182;4.474;2023-08-20T05:51:25;102136.53;;;17.52;97.26
72612;BME280;60655;52.182;4.474;2023-08-20T05:53:26;102142.03;;;17.58;97.30
72612;BME280;60655;52.182;4.474;2023-08-20T05:55:27;102130.56;;;17.62;97.89
72612;BME280;60655;52.182;4.474;2023-08-20T05:57:28;102129.81;;;17.73;98.06
72612;BME280;60655;52.182;4.474;2023-08-20T05:59:29;102132.28;;;17.86;98.16
72612;BME280;60655;52.182;4.474;2023-08-20T06:01:30;102136.50;;;17.94;98.47
72612;BME280;60655;52.182;4.474;2023-08-20T06:03:31;102127.63;;;18.05;98.35
72612;BME280;60655;52.182;4.474;2023-08-20T06:05:32;102135.91;;;18.27;97.19
72612;BME280;60655;52.182;4.474;2023-08-20T06:07:33;102133.69;;;18.36;96.82
72612;BME280;60655;52.182;4.474;2023-08-20T06:09:34;102142.91;;;18.40;96.67
72612;BME280;60655;52.182;4.474;2023-08-20T06:11:35;102136.69;;;18.51;95.80
72612;BME280;60655;52.182;4.474;2023-08-20T06:13:36;102125.34;;;18.61;95.20
72612;BME280;60655;52.182;4.474;2023-08-20T06:15:36;102137.25;;;18.76;94.86
72612;BME280;60655;52.182;4.474;2023-08-20T06:17:37;102148.69;;;18.83;94.43
72612;BME280;60655;52.182;4.474;2023-08-20T06:19:38;102142.25;;;18.84;94.23
72612;BME280;60655;52.182;4.474;2023-08-20T06:21:39;102138.94;;;18.94;93.85
72612;BME280;60655;52.182;4.474;2023-08-20T06:23:40;102146.19;;;19.05;93.65
72612;BME280;60655;52.182;4.474;2023-08-20T06:25:41;102149.03;;;19.15;92.87
72612;BME280;60655;52.182;4.474;2023-08-20T06:27:42;102147.50;;;19.19;92.24
72612;BME280;60655;52.182;4.474;2023-08-20T06:29:43;102148.66;;;19.23;92.37
72612;BME280;60655;52.182;4.474;2023-08-20T06:31:44;102138.47;;;19.26;91.56
72612;BME280;60655;52.182;4.474;2023-08-20T06:33:47;102147.63;;;19.41;91.57
72612;BME280;60655;52.182;4.474;2023-08-20T06:35:48;102160.38;;;19.46;91.49
72612;BME280;60655;52.182;4.474;2023-08-20T06:37:49;102152.03;;;19.47;91.55
72612;BME280;60655;52.182;4.474;2023-08-20T06:39:49;102155.53;;;19.60;90.72
72612;BME280;60655;52.182;4.474;2023-08-20T06:41:50;102153.16;;;19.63;90.74
72612;BME280;60655;52.182;4.474;2023-08-20T06:43:51;102157.06;;;19.72;89.54
72612;BME280;60655;52.182;4.474;2023-08-20T06:45:52;102146.03;;;19.74;89.58
72612;BME280;60655;52.182;4.474;2023-08-20T06:47:53;102156.34;;;19.77;89.07
72612;BME280;60655;52.182;4.474;2023-08-20T06:49:54;102158.06;;;19.83;89.74
72612;BME280;60655;52.182;4.474;2023-08-20T06:51:55;102152.75;;;19.88;88.59
72612;BME280;60655;52.182;4.474;2023-08-20T06:53:56;102161.41;;;19.90;88.48
72612;BME280;60655;52.182;4.474;2023-08-20T06:55:57;102163.69;;;19.98;88.98
72612;BME280;60655;52.182;4.474;2023-08-20T06:57:58;102164.59;;;20.04;88.69
72612;BME280;60655;52.182;4.474;2023-08-20T06:59:59;102163.53;;;20.05;88.12
72612;BME280;60655;52.182;4.474;2023-08-20T07:02:00;102167.94;;;20.11;87.89
72612;BME280;60655;52.182;4.474;2023-08-20T07:04:01;102174.22;;;20.16;87.06
72612;BME280;60655;52.182;4.474;2023-08-20T07:06:02;102170.47;;;20.17;86.73
72612;BME280;60655;52.182;4.474;2023-08-20T07:08:03;102175.19;;;20.27;86.51
72612;BME280;60655;52.182;4.474;2023-08-20T07:10:05;102167.09;;;20.27;86.63
72612;BME280;60655;52.182;4.474;2023-08-20T07:12:06;102181.72;;;20.31;86.26
72612;BME280;60655;52.182;4.474;2023-08-20T07:14:07;102182.03;;;20.35;85.87
72612;BME280;60655;52.182;4.474;2023-08-20T07:16:09;102188.75;;;20.32;86.04
72612;BME280;60655;52.182;4.474;2023-08-20T07:18:10;102184.34;;;20.43;85.79
72612;BME280;60655;52.182;4.474;2023-08-20T07:20:13;102190.91;;;20.47;85.29
72612;BME280;60655;52.182;4.474;2023-08-20T07:22:14;102192.78;;;20.46;85.03
72612;BME280;60655;52.182;4.474;2023-08-20T07:24:15;102187.94;;;20.48;84.92
72612;BME280;60655;52.182;4.474;2023-08-20T07:26:16;102195.28;;;20.53;85.38
72612;BME280;60655;52.182;4.474;2023-08-20T07:28:18;102193.47;;;20.59;84.72
72612;BME280;60655;52.182;4.474;2023-08-20T07:30:41;102188.53;;;20.72;84.71
72612;BME280;60655;52.182;4.474;2023-08-20T07:32:42;102190.66;;;20.70;84.55
72612;BME280;60655;52.182;4.474;2023-08-20T07:34:43;102195.34;;;20.80;84.21
72612;BME280;60655;52.182;4.474;2023-08-20T07:36:44;102190.84;;;20.85;84.34
72612;BME280;60655;52.182;4.474;2023-08-20T07:38:45;102193.09;;;20.94;84.40
72612;BME280;60655;52.182;4.474;2023-08-20T07:40:46;102197.50;;;21.00;84.01
72612;BME280;60655;52.182;4.474;2023-08-20T07:42:47;102200.69;;;21.18;82.90
72612;BME280;60655;52.182;4.474;2023-08-20T07:44:48;102206.28;;;21.34;81.59
72612;BME280;60655;52.182;4.474;2023-08-20T07:46:49;102202.78;;;21.33;81.64
72612;BME280;60655;52.182;4.474;2023-08-20T07:48:50;102202.47;;;21.30;80.34
72612;BME280;60655;52.182;4.474;2023-08-20T07:50:51;102204.84;;;21.26;81.53
72612;BME280;60655;52.182;4.474;2023-08-20T07:52:52;102210.09;;;21.16;80.93
72612;BME280;60655;52.182;4.474;2023-08-20T07:54:53;102210.09;;;21.16;81.15
72612;BME280;60655;52.182;4.474;2023-08-20T07:56:54;102210.94;;;21.16;81.15
72612;BME280;60655;52.182;4.474;2023-08-20T07:58:55;102207.81;;;21.25;80.72
72612;BME280;60655;52.182;4.474;2023-08-20T08:00:56;102211.47;;;21.40;80.54
72612;BME280;60655;52.182;4.474;2023-08-20T08:02:57;102216.63;;;21.42;80.21
72612;BME280;60655;52.182;4.474;2023-08-20T08:04:58;102223.66;;;21.43;80.89
72612;BME280;60655;52.182;4.474;2023-08-20T08:06:59;102217.00;;;21.50;80.10
72612;BME280;60655;52.182;4.474;2023-08-20T08:09:26;102222.22;;;21.57;80.75
72612;BME280;60655;52.182;4.474;2023-08-20T08:11:27;102222.53;;;21.66;79.65
72612;BME280;60655;52.182;4.474;2023-08-20T08:13:28;102220.44;;;21.73;79.22
72612;BME280;60655;52.182;4.474;2023-08-20T08:15:29;102223.19;;;21.78;79.30
72612;BME280;60655;52.182;4.474;2023-08-20T08:17:30;102230.19;;;21.74;79.00
72612;BME280;60655;52.182;4.474;2023-08-20T08:19:31;102217.50;;;21.74;78.64
72612;BME280;60655;52.182;4.474;2023-08-20T08:21:31;102218.59;;;21.78;79.63
72612;BME280;60655;52.182;4.474;2023-08-20T08:23:32;102221.06;;;21.80;77.18
72612;BME280;60655;52.182;4.474;2023-08-20T08:25:33;102231.31;;;21.78;77.35
72612;BME280;60655;52.182;4.474;2023-08-20T08:27:34;102235.19;;;21.87;77.28
72612;BME280;60655;52.182;4.474;2023-08-20T08:29:35;102229.78;;;21.87;77.09
72612;BME280;60655;52.182;4.474;2023-08-20T08:31:36;102231.16;;;21.89;77.31
72612;BME280;60655;52.182;4.474;2023-08-20T08:33:37;102226.59;;;21.95;76.24
72612;BME280;60655;52.182;4.474;2023-08-20T08:35:38;102231.75;;;21.97;75.85
72612;BME280;60655;52.182;4.474;2023-08-20T08:37:39;102229.13;;;22.02;76.70
72612;BME280;60655;52.182;4.474;2023-08-20T08:39:40;102231.09;;;22.11;77.19
72612;BME280;60655;52.182;4.474;2023-08-20T08:41:41;102236.53;;;22.16;76.22
72612;BME280;60655;52.182;4.474;2023-08-20T08:43:43;102233.31;;;22.19;76.41
72612;BME280;60655;52.182;4.474;2023-08-20T08:45:47;102223.09;;;22.32;77.01
72612;BME280;60655;52.182;4.474;2023-08-20T08:47:50;102232.91;;;22.38;74.89
72612;BME280;60655;52.182;4.474;2023-08-20T08:49:52;102231.53;;;22.35;75.17
72612;BME280;60655;52.182;4.474;2023-08-20T08:51:57;102234.81;;;22.42;74.76
72612;BME280;60655;52.182;4.474;2023-08-20T08:53:58;102234.81;;;22.42;74.98
72612;BME280;60655;52.182;4.474;2023-08-20T08:56:00;102239.50;;;22.52;74.72
72612;BME280;60655;52.182;4.474;2023-08-20T08:58:02;102227.56;;;22.53;74.12
72612;BME280;60655;52.182;4.474;2023-08-20T09:00:03;102241.09;;;22.53;74.53
72612;BME280;60655;52.182;4.474;2023-08-20T09:02:12;102245.47;;;22.59;74.24
72612;BME280;60655;52.182;4.474;2023-08-20T09:04:13;102241.66;;;22.55;75.30
72612;BME280;60655;52.182;4.474;2023-08-20T09:06:14;102251.50;;;22.66;73.86
72612;BME280;60655;52.182;4.474;2023-08-20T09:08:26;102255.78;;;22.62;73.41
72612;BME280;60655;52.182;4.474;2023-08-20T09:10:27;102249.25;;;22.58;73.84
72612;BME280;60655;52.182;4.474;2023-08-20T09:12:34;102259.03;;;22.59;74.45
72612;BME280;60655;52.182;4.474;2023-08-20T09:14:35;102247.69;;;22.67;73.30
72612;BME280;60655;52.182;4.474;2023-08-20T09:16:36;102253.16;;;22.72;73.55
72612;BME280;60655;52.182;4.474;2023-08-20T09:18:49;102258.84;;;22.71;71.38
72612;BME280;60655;52.182;4.474;2023-08-20T09:20:50;102252.59;;;22.70;72.25
72612;BME280;60655;52.182;4.474;2023-08-20T09:22:51;102253.72;;;22.74;71.93
72612;BME280;60655;52.182;4.474;2023-08-20T09:24:54;102248.63;;;22.78;70.60
72612;BME280;60655;52.182;4.474;2023-08-20T09:26:59;102240.22;;;22.79;69.46
72612;BME280;60655;52.182;4.474;2023-08-20T09:29:03;102239.16;;;22.80;69.54
72612;BME280;60655;52.182;4.474;2023-08-20T09:31:04;102240.72;;;22.76;70.37
72612;BME280;60655;52.182;4.474;2023-08-20T09:33:11;102240.22;;;22.84;70.46
72612;BME280;60655;52.182;4.474;2023-08-20T09:35:18;102242.66;;;22.81;69.24
72612;BME280;60655;52.182;4.474;2023-08-20T09:37:21;102246.94;;;22.77;69.04
72612;BME280;60655;52.182;4.474;2023-08-20T09:39:22;102250.47;;;22.77;69.75
72612;BME280;60655;52.182;4.474;2023-08-20T09:41:23;102251.06;;;22.84;70.16
72612;BME280;60655;52.182;4.474;2023-08-20T09:43:25;102253.78;;;22.84;70.15
72612;BME280;60655;52.182;4.474;2023-08-20T09:45:30;102252.69;;;22.80;68.08
72612;BME280;60655;52.182;4.474;2023-08-20T09:47:35;102260.00;;;22.85;68.68
72612;BME280;60655;52.182;4.474;2023-08-20T09:49:45;102260.09;;;23.00;68.92
72612;BME280;60655;52.182;4.474;2023-08-20T09:51:49;102261.78;;;23.16;67.97
72612;BME280;60655;52.182;4.474;2023-08-20T09:54:12;102270.16;;;23.15;67.22
72612;BME280;60655;52.182;4.474;2023-08-20T09:56:36;102262.88;;;23.20;67.22
72612;BME280;60655;52.182;4.474;2023-08-20T09:58:39;102270.22;;;23.25;67.50
72612;BME280;60655;52.182;4.474;2023-08-20T10:00:40;102273.22;;;23.34;67.80
72612;BME280;60655;52.182;4.474;2023-08-20T10:02:42;102274.22;;;23.07;66.65
72612;BME280;60655;52.182;4.474;2023-08-20T10:04:43;102265.22;;;22.97;67.36
72612;BME280;60655;52.182;4.474;2023-08-20T10:06:44;102270.69;;;23.12;68.24
72612;BME280;60655;52.182;4.474;2023-08-20T10:08:46;102271.78;;;23.11;67.55
72612;BME280;60655;52.182;4.474;2023-08-20T10:10:47;102271.56;;;23.22;67.76
72612;BME280;60655;52.182;4.474;2023-08-20T10:12:48;102267.78;;;23.23;68.10
72612;BME280;60655;52.182;4.474;2023-08-20T10:14:51;102268.63;;;23.39;68.06
72612;BME280;60655;52.182;4.474;2023-08-20T10:16:52;102274.56;;;23.31;68.63
72612;BME280;60655;52.182;4.474;2023-08-20T10:18:54;102265.44;;;23.52;67.36
72612;BME280;60655;52.182;4.474;2023-08-20T10:20:58;102259.22;;;23.57;65.63
72612;BME280;60655;52.182;4.474;2023-08-20T10:23:02;102265.47;;;23.63;66.27
72612;BME280;60655;52.182;4.474;2023-08-20T10:25:10;102260.56;;;23.60;65.65
72612;BME280;60655;52.182;4.474;2023-08-20T10:27:12;102258.94;;;23.74;66.44
72612;BME280;60655;52.182;4.474;2023-08-20T10:29:35;102262.22;;;23.86;65.58
72612;BME280;60655;52.182;4.474;2023-08-20T10:31:46;102247.03;;;23.80;65.19
72612;BME280;60655;52.182;4.474;2023-08-20T10:33:53;102257.06;;;23.84;65.18
72612;BME280;60655;52.182;4.474;2023-08-20T10:35:55;102266.03;;;23.90;65.10
72612;BME280;60655;52.182;4.474;2023-08-20T10:38:02;102259.22;;;23.98;64.97
72612;BME280;60655;52.182;4.474;2023-08-20T10:40:03;102261.69;;;23.99;64.14
72612;BME280;60655;52.182;4.474;2023-08-20T10:44:15;102255.44;;;23.88;63.30
72612;BME280;60655;52.182;4.474;2023-08-20T10:46:21;102258.41;;;23.72;64.58
72612;BME280;60655;52.182;4.474;2023-08-20T10:48:24;102258.69;;;23.65;66.01